Terminal Aerodrome Forecast
Issued by NWS

Home | Current Version | Previous Version | Text Only | Print | Product List | Glossary Off
Versions: 1 2 3 4 5 6 7 8 9 10 11 12

000
FTUS43 KGRB 201739
TAFAUW
TAF
KAUW 201739Z 2018/2118 01009G15KT P6SM BKN100
     FM202100 34007KT P6SM SCT100
     FM210200 VRB03KT P6SM SKC
     FM211200 33007KT P6SM SKC
     FM211500 34011G17KT P6SM FEW050=

USA.gov is the U.S. government's official web portal to all federal, state and local government web resources and services.